sensor_id;sensor_type;location;lat;lon;timestamp;pressure;altitude;pressure_sealevel;temperature;humidity
38780;BME280;29273;49.962;9.768;2022-12-17T00:02:25;100265.41;;;-1.77;47.03
38780;BME280;29273;49.962;9.768;2022-12-17T00:05:08;100266.28;;;-1.76;47.10
38780;BME280;29273;49.962;9.768;2022-12-17T00:07:57;100266.97;;;-1.74;46.98
38780;BME280;29273;49.962;9.768;2022-12-17T00:10:41;100269.91;;;-1.79;46.89
38780;BME280;29273;49.962;9.768;2022-12-17T00:13:25;100275.09;;;-1.79;46.89
38780;BME280;29273;49.962;9.768;2022-12-17T00:16:09;100276.03;;;-1.80;46.92
38780;BME280;29273;49.962;9.768;2022-12-17T00:18:53;100279.47;;;-1.79;46.87
38780;BME280;29273;49.962;9.768;2022-12-17T00:21:37;100276.97;;;-1.81;46.81
38780;BME280;29273;49.962;9.768;2022-12-17T00:24:21;100277.81;;;-1.80;46.77
38780;BME280;29273;49.962;9.768;2022-12-17T00:27:06;100278.63;;;-1.80;46.88
38780;BME280;29273;49.962;9.768;2022-12-17T00:29:50;100277.09;;;-1.82;46.93
38780;BME280;29273;49.962;9.768;2022-12-17T00:32:34;100283.09;;;-1.82;46.95
38780;BME280;29273;49.962;9.768;2022-12-17T00:35:18;100287.47;;;-1.82;46.91
38780;BME280;29273;49.962;9.768;2022-12-17T00:38:02;100292.66;;;-1.82;47.00
38780;BME280;29273;49.962;9.768;2022-12-17T00:40:52;100295.88;;;-1.79;46.96
38780;BME280;29273;49.962;9.768;2022-12-17T00:43:37;100297.84;;;-1.82;47.05
38780;BME280;29273;49.962;9.768;2022-12-17T00:46:21;100297.84;;;-1.82;47.26
38780;BME280;29273;49.962;9.768;2022-12-17T00:49:05;100304.81;;;-1.83;46.96
38780;BME280;29273;49.962;9.768;2022-12-17T00:51:49;100303.06;;;-1.82;46.91
38780;BME280;29273;49.962;9.768;2022-12-17T00:54:34;100308.25;;;-1.82;46.86
38780;BME280;29273;49.962;9.768;2022-12-17T00:57:18;100315.22;;;-1.83;46.86
38780;BME280;29273;49.962;9.768;2022-12-17T01:00:03;100317.06;;;-1.85;46.79
38780;BME280;29273;49.962;9.768;2022-12-17T01:02:47;100312.84;;;-1.86;46.60
38780;BME280;29273;49.962;9.768;2022-12-17T01:05:30;100315.53;;;-1.88;46.59
38780;BME280;29273;49.962;9.768;2022-12-17T01:08:14;100310.44;;;-1.89;46.60
38780;BME280;29273;49.962;9.768;2022-12-17T01:11:04;100317.16;;;-1.87;46.62
38780;BME280;29273;49.962;9.768;2022-12-17T01:13:48;100320.13;;;-1.91;46.58
38780;BME280;29273;49.962;9.768;2022-12-17T01:16:33;100328.84;;;-1.92;46.61
38780;BME280;29273;49.962;9.768;2022-12-17T01:19:17;100331.53;;;-1.94;46.56
38780;BME280;29273;49.962;9.768;2022-12-17T01:22:04;100334.22;;;-1.95;46.43
38780;BME280;29273;49.962;9.768;2022-12-17T01:24:48;100340.50;;;-1.98;46.47
38780;BME280;29273;49.962;9.768;2022-12-17T01:27:32;100341.41;;;-1.99;46.56
38780;BME280;29273;49.962;9.768;2022-12-17T01:30:16;100343.28;;;-2.01;46.52
38780;BME280;29273;49.962;9.768;2022-12-17T01:33:04;100344.00;;;-1.99;46.31
38780;BME280;29273;49.962;9.768;2022-12-17T01:35:49;100350.56;;;-2.06;46.28
38780;BME280;29273;49.962;9.768;2022-12-17T01:38:33;100349.63;;;-2.05;46.22
38780;BME280;29273;49.962;9.768;2022-12-17T01:41:18;100349.72;;;-2.07;46.25
38780;BME280;29273;49.962;9.768;2022-12-17T01:44:38;100355.97;;;-2.09;45.98
38780;BME280;29273;49.962;9.768;2022-12-17T01:47:48;100357.97;;;-2.13;46.01
38780;BME280;29273;49.962;9.768;2022-12-17T01:50:36;100356.28;;;-2.14;46.02
38780;BME280;29273;49.962;9.768;2022-12-17T01:53:24;100365.94;;;-2.16;46.12
38780;BME280;29273;49.962;9.768;2022-12-17T01:56:10;100365.44;;;-2.21;46.16
38780;BME280;29273;49.962;9.768;2022-12-17T01:58:54;100366.38;;;-2.22;46.24
38780;BME280;29273;49.962;9.768;2022-12-17T02:01:39;100368.25;;;-2.24;46.26
38780;BME280;29273;49.962;9.768;2022-12-17T02:04:24;100372.59;;;-2.25;46.27
38780;BME280;29273;49.962;9.768;2022-12-17T02:07:26;100371.56;;;-2.22;46.22
38780;BME280;29273;49.962;9.768;2022-12-17T02:13:07;100375.22;;;-2.25;46.16
38780;BME280;29273;49.962;9.768;2022-12-17T02:16:30;100383.41;;;-2.31;46.17
38780;BME280;29273;49.962;9.768;2022-12-17T02:26:34;100383.72;;;-2.35;45.89
38780;BME280;29273;49.962;9.768;2022-12-17T02:28:52;100388.28;;;-2.39;46.04
38780;BME280;29273;49.962;9.768;2022-12-17T02:31:39;100399.47;;;-2.38;46.00
38780;BME280;29273;49.962;9.768;2022-12-17T02:34:24;100401.44;;;-2.42;46.08
38780;BME280;29273;49.962;9.768;2022-12-17T02:37:08;100398.97;;;-2.44;45.96
38780;BME280;29273;49.962;9.768;2022-12-17T02:39:53;100395.53;;;-2.44;46.02
38780;BME280;29273;49.962;9.768;2022-12-17T02:42:37;100397.31;;;-2.45;46.02
38780;BME280;29273;49.962;9.768;2022-12-17T02:45:21;100405.81;;;-2.43;45.99
38780;BME280;29273;49.962;9.768;2022-12-17T02:48:07;100406.75;;;-2.44;45.88
38780;BME280;29273;49.962;9.768;2022-12-17T02:50:52;100400.81;;;-2.46;45.89
38780;BME280;29273;49.962;9.768;2022-12-17T02:53:45;100403.22;;;-2.43;45.83
38780;BME280;29273;49.962;9.768;2022-12-17T02:56:32;100401.75;;;-2.47;45.95
38780;BME280;29273;49.962;9.768;2022-12-17T02:59:16;100400.22;;;-2.49;45.97
38780;BME280;29273;49.962;9.768;2022-12-17T03:02:08;100403.63;;;-2.49;46.06
38780;BME280;29273;49.962;9.768;2022-12-17T03:04:52;100411.31;;;-2.47;46.01
38780;BME280;29273;49.962;9.768;2022-12-17T03:07:36;100410.47;;;-2.48;46.04
38780;BME280;29273;49.962;9.768;2022-12-17T03:10:20;100406.31;;;-2.50;45.99
38780;BME280;29273;49.962;9.768;2022-12-17T03:13:04;100421.25;;;-2.54;46.02
38780;BME280;29273;49.962;9.768;2022-12-17T03:15:48;100424.06;;;-2.57;45.96
38780;BME280;29273;49.962;9.768;2022-12-17T03:18:32;100426.13;;;-2.62;46.05
38780;BME280;29273;49.962;9.768;2022-12-17T03:21:16;100435.16;;;-2.68;46.03
38780;BME280;29273;49.962;9.768;2022-12-17T03:24:00;100431.94;;;-2.71;46.11
38780;BME280;29273;49.962;9.768;2022-12-17T03:26:44;100441.75;;;-2.76;46.07
38780;BME280;29273;49.962;9.768;2022-12-17T03:29:28;100443.72;;;-2.80;46.29
38780;BME280;29273;49.962;9.768;2022-12-17T03:32:12;100439.66;;;-2.84;46.45
38780;BME280;29273;49.962;9.768;2022-12-17T03:34:56;100436.25;;;-2.85;46.53
38780;BME280;29273;49.962;9.768;2022-12-17T03:37:40;100444.84;;;-2.84;46.65
38780;BME280;29273;49.962;9.768;2022-12-17T03:40:24;100437.91;;;-2.84;46.46
38780;BME280;29273;49.962;9.768;2022-12-17T03:43:08;100436.13;;;-2.83;46.61
38780;BME280;29273;49.962;9.768;2022-12-17T03:45:54;100436.13;;;-2.83;46.60
38780;BME280;29273;49.962;9.768;2022-12-17T03:48:38;100440.28;;;-2.81;46.30
38780;BME280;29273;49.962;9.768;2022-12-17T03:51:22;100444.56;;;-2.80;46.53
38780;BME280;29273;49.962;9.768;2022-12-17T03:54:06;100443.72;;;-2.80;46.69
38780;BME280;29273;49.962;9.768;2022-12-17T03:56:50;100448.78;;;-2.79;46.46
38780;BME280;29273;49.962;9.768;2022-12-17T03:59:34;100450.47;;;-2.77;46.41
38780;BME280;29273;49.962;9.768;2022-12-17T04:02:18;100447.25;;;-2.81;46.54
38780;BME280;29273;49.962;9.768;2022-12-17T04:05:02;100457.44;;;-2.78;46.55
38780;BME280;29273;49.962;9.768;2022-12-17T04:07:47;100460.03;;;-2.78;46.50
38780;BME280;29273;49.962;9.768;2022-12-17T04:10:31;100462.59;;;-2.78;46.48
38780;BME280;29273;49.962;9.768;2022-12-17T04:13:15;100472.03;;;-2.77;46.56
38780;BME280;29273;49.962;9.768;2022-12-17T04:16:07;100474.72;;;-2.79;46.51
38780;BME280;29273;49.962;9.768;2022-12-17T04:18:51;100472.84;;;-2.76;46.48
38780;BME280;29273;49.962;9.768;2022-12-17T04:21:35;100468.63;;;-2.77;46.44
38780;BME280;29273;49.962;9.768;2022-12-17T04:24:19;100478.03;;;-2.76;46.39
38780;BME280;29273;49.962;9.768;2022-12-17T04:27:03;100479.00;;;-2.77;46.19
38780;BME280;29273;49.962;9.768;2022-12-17T04:29:46;100491.94;;;-2.77;46.25
38780;BME280;29273;49.962;9.768;2022-12-17T04:32:30;100497.97;;;-2.77;46.01
38780;BME280;29273;49.962;9.768;2022-12-17T04:35:14;100496.41;;;-2.80;46.22
38780;BME280;29273;49.962;9.768;2022-12-17T04:37:58;100498.25;;;-2.82;46.18
38780;BME280;29273;49.962;9.768;2022-12-17T04:40:42;100493.16;;;-2.83;46.25
38780;BME280;29273;49.962;9.768;2022-12-17T04:43:26;100503.66;;;-2.85;46.20
38780;BME280;29273;49.962;9.768;2022-12-17T04:46:10;100508.84;;;-2.85;46.34
38780;BME280;29273;49.962;9.768;2022-12-17T04:48:54;100510.56;;;-2.85;46.43
38780;BME280;29273;49.962;9.768;2022-12-17T04:51:38;100507.06;;;-2.84;46.25
38780;BME280;29273;49.962;9.768;2022-12-17T04:54:22;100518.97;;;-2.82;46.32
38780;BME280;29273;49.962;9.768;2022-12-17T04:57:06;100520.66;;;-2.81;46.33
38780;BME280;29273;49.962;9.768;2022-12-17T04:59:50;100521.47;;;-2.80;46.34
38780;BME280;29273;49.962;9.768;2022-12-17T05:02:34;100518.88;;;-2.80;46.11
38780;BME280;29273;49.962;9.768;2022-12-17T05:05:18;100522.44;;;-2.81;46.07
38780;BME280;29273;49.962;9.768;2022-12-17T05:08:02;100525.03;;;-2.81;46.18
38780;BME280;29273;49.962;9.768;2022-12-17T05:10:45;100532.81;;;-2.81;46.25
38780;BME280;29273;49.962;9.768;2022-12-17T05:13:29;100544.00;;;-2.81;46.29
38780;BME280;29273;49.962;9.768;2022-12-17T05:16:13;100545.66;;;-2.80;46.15
38780;BME280;29273;49.962;9.768;2022-12-17T05:18:57;100544.81;;;-2.80;46.17
38780;BME280;29273;49.962;9.768;2022-12-17T05:21:42;100555.19;;;-2.80;45.92
38780;BME280;29273;49.962;9.768;2022-12-17T05:24:26;100549.28;;;-2.82;45.94
38780;BME280;29273;49.962;9.768;2022-12-17T05:27:10;100551.13;;;-2.84;45.72
38780;BME280;29273;49.962;9.768;2022-12-17T05:29:54;100546.97;;;-2.87;45.85
38780;BME280;29273;49.962;9.768;2022-12-17T05:32:37;100546.22;;;-2.89;45.59
38780;BME280;29273;49.962;9.768;2022-12-17T05:35:21;100552.47;;;-2.91;45.65
38780;BME280;29273;49.962;9.768;2022-12-17T05:38:08;100558.56;;;-2.92;45.58
38780;BME280;29273;49.962;9.768;2022-12-17T05:40:57;100561.16;;;-2.92;45.52
38780;BME280;29273;49.962;9.768;2022-12-17T05:43:42;100563.19;;;-2.98;45.63
38780;BME280;29273;49.962;9.768;2022-12-17T05:46:27;100561.53;;;-2.99;45.58
38780;BME280;29273;49.962;9.768;2022-12-17T05:49:12;100564.31;;;-3.02;45.63
38780;BME280;29273;49.962;9.768;2022-12-17T05:51:56;100560.06;;;-3.03;45.53
38780;BME280;29273;49.962;9.768;2022-12-17T05:54:39;100569.69;;;-3.05;45.49
38780;BME280;29273;49.962;9.768;2022-12-17T05:57:23;100566.34;;;-3.07;45.57
38780;BME280;29273;49.962;9.768;2022-12-17T06:00:08;100563.03;;;-3.09;45.45
38780;BME280;29273;49.962;9.768;2022-12-17T06:03:02;100575.06;;;-3.08;45.27
38780;BME280;29273;49.962;9.768;2022-12-17T06:05:47;100578.03;;;-3.14;45.36
38780;BME280;29273;49.962;9.768;2022-12-17T06:08:36;100578.94;;;-3.15;45.49
38780;BME280;29273;49.962;9.768;2022-12-17T06:11:20;100575.72;;;-3.19;45.31
38780;BME280;29273;49.962;9.768;2022-12-17T06:14:04;100575.81;;;-3.20;45.28
38780;BME280;29273;49.962;9.768;2022-12-17T06:16:48;100585.44;;;-3.22;45.13
38780;BME280;29273;49.962;9.768;2022-12-17T06:19:32;100583.03;;;-3.25;45.25
38780;BME280;29273;49.962;9.768;2022-12-17T06:22:16;100588.31;;;-3.27;45.31
38780;BME280;29273;49.962;9.768;2022-12-17T06:25:00;100594.44;;;-3.28;45.16
38780;BME280;29273;49.962;9.768;2022-12-17T06:27:43;100603.22;;;-3.30;45.17
38780;BME280;29273;49.962;9.768;2022-12-17T06:30:27;100604.03;;;-3.30;45.50
38780;BME280;29273;49.962;9.768;2022-12-17T06:33:11;100613.56;;;-3.30;45.42
38780;BME280;29273;49.962;9.768;2022-12-17T06:35:56;100611.88;;;-3.31;45.30
38780;BME280;29273;49.962;9.768;2022-12-17T06:38:41;100619.66;;;-3.31;45.74
38780;BME280;29273;49.962;9.768;2022-12-17T06:41:25;100624.84;;;-3.31;45.57
38780;BME280;29273;49.962;9.768;2022-12-17T06:44:09;100623.19;;;-3.32;45.53
38780;BME280;29273;49.962;9.768;2022-12-17T06:46:53;100628.38;;;-3.32;45.39
38780;BME280;29273;49.962;9.768;2022-12-17T06:49:37;100638.00;;;-3.35;45.21
38780;BME280;29273;49.962;9.768;2022-12-17T06:52:21;100634.75;;;-3.38;45.19
38780;BME280;29273;49.962;9.768;2022-12-17T06:55:05;100641.78;;;-3.40;45.22
38780;BME280;29273;49.962;9.768;2022-12-17T06:57:57;100641.59;;;-3.37;45.19
38780;BME280;29273;49.962;9.768;2022-12-17T07:00:42;100643.72;;;-3.44;45.25
38780;BME280;29273;49.962;9.768;2022-12-17T07:03:26;100646.31;;;-3.44;45.33
38780;BME280;29273;49.962;9.768;2022-12-17T07:06:10;100649.94;;;-3.46;45.36
38780;BME280;29273;49.962;9.768;2022-12-17T07:08:54;100655.94;;;-3.46;45.31
38780;BME280;29273;49.962;9.768;2022-12-17T07:11:38;100671.56;;;-3.47;45.37
38780;BME280;29273;49.962;9.768;2022-12-17T07:14:22;100673.31;;;-3.48;45.24
38780;BME280;29273;49.962;9.768;2022-12-17T07:17:06;100682.81;;;-3.48;45.21
38780;BME280;29273;49.962;9.768;2022-12-17T07:19:49;100687.19;;;-3.49;45.13
38780;BME280;29273;49.962;9.768;2022-12-17T07:22:33;100692.38;;;-3.49;45.23
38780;BME280;29273;49.962;9.768;2022-12-17T07:25:17;100693.28;;;-3.50;45.26
38780;BME280;29273;49.962;9.768;2022-12-17T07:28:01;100697.63;;;-3.50;45.30
38780;BME280;29273;49.962;9.768;2022-12-17T07:30:45;100701.03;;;-3.50;45.29
38780;BME280;29273;49.962;9.768;2022-12-17T07:33:29;100703.63;;;-3.50;45.47
38780;BME280;29273;49.962;9.768;2022-12-17T07:36:13;100702.72;;;-3.49;45.32
38780;BME280;29273;49.962;9.768;2022-12-17T07:38:56;100715.59;;;-3.47;45.32
38780;BME280;29273;49.962;9.768;2022-12-17T07:41:41;100713.06;;;-3.49;45.32
38780;BME280;29273;49.962;9.768;2022-12-17T07:44:25;100725.94;;;-3.47;45.57
38780;BME280;29273;49.962;9.768;2022-12-17T07:47:09;100732.03;;;-3.48;45.47
38780;BME280;29273;49.962;9.768;2022-12-17T07:49:53;100732.03;;;-3.48;45.62
38780;BME280;29273;49.962;9.768;2022-12-17T07:52:37;100739.72;;;-3.47;45.63
38780;BME280;29273;49.962;9.768;2022-12-17T07:55:21;100741.41;;;-3.46;45.67
38780;BME280;29273;49.962;9.768;2022-12-17T07:58:08;100751.59;;;-3.43;45.51
38780;BME280;29273;49.962;9.768;2022-12-17T08:00:53;100752.50;;;-3.44;45.54
38780;BME280;29273;49.962;9.768;2022-12-17T08:03:37;100752.50;;;-3.44;45.44
38780;BME280;29273;49.962;9.768;2022-12-17T08:06:22;100755.09;;;-3.44;45.52
38780;BME280;29273;49.962;9.768;2022-12-17T08:09:06;100765.34;;;-3.42;45.56
38780;BME280;29273;49.962;9.768;2022-12-17T08:11:50;100764.63;;;-3.44;45.80
38780;BME280;29273;49.962;9.768;2022-12-17T08:14:34;100766.25;;;-3.43;45.81
38780;BME280;29273;49.962;9.768;2022-12-17T08:17:18;100774.81;;;-3.41;45.97
38780;BME280;29273;49.962;9.768;2022-12-17T08:20:02;100776.38;;;-3.39;46.12
38780;BME280;29273;49.962;9.768;2022-12-17T08:22:47;100782.28;;;-3.37;46.12
38780;BME280;29273;49.962;9.768;2022-12-17T08:25:31;100783.81;;;-3.32;46.32
38780;BME280;29273;49.962;9.768;2022-12-17T08:28:15;100787.94;;;-3.30;46.23
38780;BME280;29273;49.962;9.768;2022-12-17T08:30:59;100792.97;;;-3.27;46.21
38780;BME280;29273;49.962;9.768;2022-12-17T08:33:43;100796.13;;;-3.22;46.47
38780;BME280;29273;49.962;9.768;2022-12-17T08:36:26;100795.94;;;-3.19;46.55
38780;BME280;29273;49.962;9.768;2022-12-17T08:39:10;100800.97;;;-3.16;46.67
38780;BME280;29273;49.962;9.768;2022-12-17T08:41:55;100799.84;;;-3.11;46.71
38780;BME280;29273;49.962;9.768;2022-12-17T08:44:55;100803.19;;;-3.09;46.69
38780;BME280;29273;49.962;9.768;2022-12-17T08:47:39;100802.94;;;-3.05;46.71
38780;BME280;29273;49.962;9.768;2022-12-17T08:50:23;100807.09;;;-3.02;46.78
38780;BME280;29273;49.962;9.768;2022-12-17T08:53:07;100806.84;;;-2.98;46.77
38780;BME280;29273;49.962;9.768;2022-12-17T08:55:51;100806.75;;;-2.96;46.81
38780;BME280;29273;49.962;9.768;2022-12-17T08:58:35;100807.47;;;-2.94;46.75
38780;BME280;29273;49.962;9.768;2022-12-17T09:01:19;100814.25;;;-2.91;46.83
38780;BME280;29273;49.962;9.768;2022-12-17T09:04:04;100814.91;;;-2.88;47.03
38780;BME280;29273;49.962;9.768;2022-12-17T09:06:48;100818.97;;;-2.84;47.11
38780;BME280;29273;49.962;9.768;2022-12-17T09:09:32;100823.97;;;-2.81;47.17
38780;BME280;29273;49.962;9.768;2022-12-17T09:12:16;100819.53;;;-2.79;47.08
38780;BME280;29273;49.962;9.768;2022-12-17T09:15:00;100825.28;;;-2.73;47.30
38780;BME280;29273;49.962;9.768;2022-12-17T09:17:44;100832.06;;;-2.71;47.38
38780;BME280;29273;49.962;9.768;2022-12-17T09:20:28;100836.13;;;-2.67;47.45
38780;BME280;29273;49.962;9.768;2022-12-17T09:23:16;100840.94;;;-2.61;47.38
38780;BME280;29273;49.962;9.768;2022-12-17T09:26:00;100841.69;;;-2.58;47.46
38780;BME280;29273;49.962;9.768;2022-12-17T09:28:44;100842.47;;;-2.56;47.43
38780;BME280;29273;49.962;9.768;2022-12-17T09:31:30;100840.41;;;-2.51;47.11
38780;BME280;29273;49.962;9.768;2022-12-17T09:34:14;100838.66;;;-2.51;47.44
38780;BME280;29273;49.962;9.768;2022-12-17T09:36:58;100833.28;;;-2.48;47.67
38780;BME280;29273;49.962;9.768;2022-12-17T09:39:42;100834.75;;;-2.44;47.77
38780;BME280;29273;49.962;9.768;2022-12-17T09:42:36;100830.13;;;-2.38;47.72
38780;BME280;29273;49.962;9.768;2022-12-17T09:45:27;100831.72;;;-2.36;47.89
38780;BME280;29273;49.962;9.768;2022-12-17T09:48:41;100833.34;;;-2.35;47.45
38780;BME280;29273;49.962;9.768;2022-12-17T09:51:32;100845.50;;;-2.35;47.87
38780;BME280;29273;49.962;9.768;2022-12-17T09:54:31;100840.31;;;-2.35;48.20
38780;BME280;29273;49.962;9.768;2022-12-17T09:57:33;100841.72;;;-2.30;48.02
38780;BME280;29273;49.962;9.768;2022-12-17T10:00:25;100833.63;;;-2.25;48.30
38780;BME280;29273;49.962;9.768;2022-12-17T10:03:13;100844.66;;;-2.21;48.60
38780;BME280;29273;49.962;9.768;2022-12-17T10:06:08;100850.44;;;-2.16;48.47
38780;BME280;29273;49.962;9.768;2022-12-17T10:08:58;100836.22;;;-2.11;48.55
38780;BME280;29273;49.962;9.768;2022-12-17T10:11:42;100832.63;;;-2.08;48.64
38780;BME280;29273;49.962;9.768;2022-12-17T10:14:26;100835.75;;;-2.03;48.72
38780;BME280;29273;49.962;9.768;2022-12-17T10:17:21;100829.06;;;-1.93;48.54
38780;BME280;29273;49.962;9.768;2022-12-17T10:20:26;100828.66;;;-1.87;48.57
38780;BME280;29273;49.962;9.768;2022-12-17T10:23:27;100835.34;;;-1.82;48.52
38780;BME280;29273;49.962;9.768;2022-12-17T10:26:20;100834.13;;;-1.77;48.56
38780;BME280;29273;49.962;9.768;2022-12-17T10:29:25;100833.84;;;-1.72;48.67
38780;BME280;29273;49.962;9.768;2022-12-17T10:35:01;100834.38;;;-1.67;48.90
38780;BME280;29273;49.962;9.768;2022-12-17T10:37:50;100833.16;;;-1.61;48.93
38780;BME280;29273;49.962;9.768;2022-12-17T10:40:34;100839.81;;;-1.57;49.04
38780;BME280;29273;49.962;9.768;2022-12-17T10:43:30;100842.66;;;-1.47;48.81
38780;BME280;29273;49.962;9.768;2022-12-17T10:46:28;100843.28;;;-1.44;48.94
38780;BME280;29273;49.962;9.768;2022-12-17T10:49:19;100841.13;;;-1.37;49.05
38780;BME280;29273;49.962;9.768;2022-12-17T10:52:26;100841.03;;;-1.36;48.90
38780;BME280;29273;49.962;9.768;2022-12-17T10:55:19;100843.16;;;-1.28;49.04
38780;BME280;29273;49.962;9.768;2022-12-17T10:58:12;100842.72;;;-1.22;49.10
38780;BME280;29273;49.962;9.768;2022-12-17T11:01:01;100851.19;;;-1.18;49.20
38780;BME280;29273;49.962;9.768;2022-12-17T11:06:37;100847.06;;;-1.08;49.11
38780;BME280;29273;49.962;9.768;2022-12-17T11:09:31;100845.91;;;-1.04;49.10
38780;BME280;29273;49.962;9.768;2022-12-17T11:12:19;100850.81;;;-0.99;49.14
38780;BME280;29273;49.962;9.768;2022-12-17T11:15:15;100846.84;;;-0.92;48.60
38780;BME280;29273;49.962;9.768;2022-12-17T11:18:01;100843.44;;;-0.93;48.99
38780;BME280;29273;49.962;9.768;2022-12-17T11:20:57;100840.34;;;-0.85;48.92
38780;BME280;29273;49.962;9.768;2022-12-17T11:23:45;100849.59;;;-0.81;49.17
38780;BME280;29273;49.962;9.768;2022-12-17T11:26:35;100844.19;;;-0.78;49.06
38780;BME280;29273;49.962;9.768;2022-12-17T11:29:21;100848.47;;;-0.77;49.22
38780;BME280;29273;49.962;9.768;2022-12-17T11:38:21;100851.03;;;-0.64;48.99
38780;BME280;29273;49.962;9.768;2022-12-17T11:44:20;100843.75;;;-0.59;49.10
38780;BME280;29273;49.962;9.768;2022-12-17T11:47:39;100845.53;;;-0.59;49.28
38780;BME280;29273;49.962;9.768;2022-12-17T11:50:37;100851.16;;;-0.52;49.52
38780;BME280;29273;49.962;9.768;2022-12-17T11:56:41;100853.16;;;-0.43;49.53
38780;BME280;29273;49.962;9.768;2022-12-17T11:59:48;100852.00;;;-0.39;49.54
38780;BME280;29273;49.962;9.768;2022-12-17T12:06:13;100852.81;;;-0.26;49.58
38780;BME280;29273;49.962;9.768;2022-12-17T12:09:19;100855.91;;;-0.21;49.57
38780;BME280;29273;49.962;9.768;2022-12-17T12:18:22;100857.47;;;-0.05;49.62
38780;BME280;29273;49.962;9.768;2022-12-17T12:21:36;100854.75;;;-0.04;49.56
38780;BME280;29273;49.962;9.768;2022-12-17T12:30:33;100851.69;;;0.15;50.01
38780;BME280;29273;49.962;9.768;2022-12-17T12:36:32;100848.31;;;0.26;50.13
38780;BME280;29273;49.962;9.768;2022-12-17T12:39:20;100850.38;;;0.34;49.97
38780;BME280;29273;49.962;9.768;2022-12-17T12:42:22;100846.59;;;0.38;49.79
38780;BME280;29273;49.962;9.768;2022-12-17T12:45:21;100858.28;;;0.45;49.72
38780;BME280;29273;49.962;9.768;2022-12-17T12:49:07;100846.78;;;0.48;49.80
38780;BME280;29273;49.962;9.768;2022-12-17T12:51:33;100835.91;;;0.54;49.93
38780;BME280;29273;49.962;9.768;2022-12-17T12:54:28;100839.03;;;0.59;49.73
38780;BME280;29273;49.962;9.768;2022-12-17T12:57:36;100850.06;;;0.63;49.72
38780;BME280;29273;49.962;9.768;2022-12-17T13:00:34;100847.84;;;0.69;49.68
38780;BME280;29273;49.962;9.768;2022-12-17T13:03:25;100838.84;;;0.73;49.57
38780;BME280;29273;49.962;9.768;2022-12-17T13:06:12;100839.69;;;0.74;49.62
38780;BME280;29273;49.962;9.768;2022-12-17T13:08:38;100847.28;;;0.77;49.80
38780;BME280;29273;49.962;9.768;2022-12-17T13:11:27;100845.28;;;0.81;49.71
38780;BME280;29273;49.962;9.768;2022-12-17T13:13:56;100847.56;;;0.85;49.80
38780;BME280;29273;49.962;9.768;2022-12-17T13:16:39;100846.47;;;0.88;49.90
38780;BME280;29273;49.962;9.768;2022-12-17T13:22:08;100845.94;;;0.96;49.58
38780;BME280;29273;49.962;9.768;2022-12-17T13:24:33;100849.34;;;0.96;49.49
38780;BME280;29273;49.962;9.768;2022-12-17T13:26:59;100849.94;;;1.00;49.53
38780;BME280;29273;49.962;9.768;2022-12-17T13:29:31;100847.00;;;1.04;49.41
38780;BME280;29273;49.962;9.768;2022-12-17T13:35:11;100856.63;;;1.04;49.53
38780;BME280;29273;49.962;9.768;2022-12-17T13:37:28;100849.28;;;1.09;49.38
38780;BME280;29273;49.962;9.768;2022-12-17T13:40:05;100856.03;;;1.11;49.33
38780;BME280;29273;49.962;9.768;2022-12-17T13:42:37;100851.06;;;1.08;49.46
38780;BME280;29273;49.962;9.768;2022-12-17T13:45:03;100860.44;;;1.11;49.49
38780;BME280;29273;49.962;9.768;2022-12-17T13:47:32;100864.50;;;1.15;49.61
38780;BME280;29273;49.962;9.768;2022-12-17T13:50:00;100856.53;;;1.17;49.64
38780;BME280;29273;49.962;9.768;2022-12-17T13:52:28;100857.38;;;1.17;49.58
38780;BME280;29273;49.962;9.768;2022-12-17T13:55:04;100857.38;;;1.17;49.70
38780;BME280;29273;49.962;9.768;2022-12-17T13:57:30;100855.59;;;1.18;49.41
38780;BME280;29273;49.962;9.768;2022-12-17T13:59:58;100858.69;;;1.23;49.36
38780;BME280;29273;49.962;9.768;2022-12-17T14:02:34;100864.50;;;1.26;49.36
38780;BME280;29273;49.962;9.768;2022-12-17T14:05:06;100866.28;;;1.26;49.27
38780;BME280;29273;49.962;9.768;2022-12-17T14:07:34;100877.53;;;1.26;49.42
38780;BME280;29273;49.962;9.768;2022-12-17T14:10:03;100878.41;;;1.27;49.26
38780;BME280;29273;49.962;9.768;2022-12-17T14:12:29;100878.41;;;1.27;49.14
38780;BME280;29273;49.962;9.768;2022-12-17T14:15:00;100881.00;;;1.27;49.26
38780;BME280;29273;49.962;9.768;2022-12-17T14:17:37;100876.50;;;1.29;49.33
38780;BME280;29273;49.962;9.768;2022-12-17T14:20:22;100879.94;;;1.29;48.96
38780;BME280;29273;49.962;9.768;2022-12-17T14:22:52;100876.50;;;1.29;49.29
38780;BME280;29273;49.962;9.768;2022-12-17T14:25:38;100876.50;;;1.29;49.26
38780;BME280;29273;49.962;9.768;2022-12-17T14:28:18;100872.94;;;1.30;49.18
38780;BME280;29273;49.962;9.768;2022-12-17T14:30:44;100880.16;;;1.26;49.27
38780;BME280;29273;49.962;9.768;2022-12-17T14:33:26;100879.81;;;1.31;49.03
38780;BME280;29273;49.962;9.768;2022-12-17T14:35:53;100886.13;;;1.28;49.14
38780;BME280;29273;49.962;9.768;2022-12-17T14:38:19;100877.53;;;1.26;49.23
38780;BME280;29273;49.962;9.768;2022-12-17T14:40:45;100885.38;;;1.26;49.15
38780;BME280;29273;49.962;9.768;2022-12-17T14:43:12;100886.13;;;1.28;49.14
38780;BME280;29273;49.962;9.768;2022-12-17T14:45:39;100879.31;;;1.26;49.12
38780;BME280;29273;49.962;9.768;2022-12-17T14:48:33;100883.00;;;1.23;49.01
38780;BME280;29273;49.962;9.768;2022-12-17T14:51:23;100876.84;;;1.24;49.12
38780;BME280;29273;49.962;9.768;2022-12-17T14:53:51;100875.53;;;1.19;48.47
38780;BME280;29273;49.962;9.768;2022-12-17T14:56:22;100881.44;;;1.21;49.01
38780;BME280;29273;49.962;9.768;2022-12-17T14:58:47;100877.41;;;1.17;49.10
38780;BME280;29273;49.962;9.768;2022-12-17T15:01:13;100885.47;;;1.14;49.05
38780;BME280;29273;49.962;9.768;2022-12-17T15:03:42;100888.78;;;1.16;49.03
38780;BME280;29273;49.962;9.768;2022-12-17T15:06:10;100886.41;;;1.13;49.00
38780;BME280;29273;49.962;9.768;2022-12-17T15:08:42;100887.34;;;1.11;48.87
38780;BME280;29273;49.962;9.768;2022-12-17T15:11:09;100890.47;;;0.92;49.20
38780;BME280;29273;49.962;9.768;2022-12-17T15:13:36;100897.66;;;1.02;48.87
38780;BME280;29273;49.962;9.768;2022-12-17T15:16:01;100899.63;;;0.98;48.83
38780;BME280;29273;49.962;9.768;2022-12-17T15:18:27;100905.91;;;0.96;48.89